Time;durP1;ratioP1;P1;durP2;ratioP2;P2;SDS_P1;SDS_P2;PMS_P1;PMS_P2;Temp;Humidity;BMP_temperature;BMP_pressure;BME280_temperature;BME280_humidity;BME280_pressure;Samples;Min_cycle;Max_cycle;Signal;HPM_P1;HPM_P2
2022/10/27 00:00:32;;;;;;;0.20;0.20;;;16.90;99.90;17.80;101822.00;;;;5054501;28;20581;-68
2022/10/27 00:03:04;;;;;;;0.20;0.20;;;16.90;99.90;17.70;101821.00;;;;5054561;28;20231;-69
2022/10/27 00:05:33;;;;;;;0.20;0.20;;;16.90;99.90;17.90;101828.00;;;;5055214;28;20626;-68
2022/10/27 00:08:02;;;;;;;0.40;0.40;;;16.80;99.90;17.80;101831.00;;;;5054607;28;20540;-69
2022/10/27 00:10:31;;;;;;;0.43;0.43;;;16.80;99.90;17.70;101837.00;;;;5054236;28;20641;-69
2022/10/27 00:12:56;;;;;;;0.60;0.60;;;16.80;99.90;17.80;101786.00;;;;5070911;28;20303;-69
2022/10/27 00:15:25;;;;;;;0.30;0.30;;;16.70;99.90;17.90;101831.00;;;;5054554;28;20301;-69
2022/10/27 00:17:51;;;;;;;0.20;0.20;;;16.90;99.90;17.80;101841.00;;;;5055411;28;20179;-69
2022/10/27 00:20:22;;;;;;;0.20;0.20;;;16.70;99.90;17.50;101838.00;;;;5070318;28;20554;-69
2022/10/27 00:22:51;;;;;;;0.63;0.40;;;16.70;99.90;17.60;101841.00;;;;5070669;28;20189;-68
2022/10/27 00:25:20;;;;;;;0.20;0.20;;;16.60;99.90;17.50;101842.00;;;;5054166;28;20188;-68
2022/10/27 00:27:48;;;;;;;0.20;0.20;;;16.60;99.90;17.40;101839.00;;;;5037666;28;20179;-69
2022/10/27 00:30:22;;;;;;;0.23;0.23;;;16.50;99.90;17.50;101847.00;;;;5054055;28;20296;-69
2022/10/27 00:32:55;;;;;;;0.20;0.20;;;16.50;99.90;17.10;101836.00;;;;5055097;28;20302;-69
2022/10/27 00:35:24;;;;;;;0.20;0.20;;;16.40;99.90;17.00;101847.00;;;;5033032;28;20268;-68
2022/10/27 00:37:55;;;;;;;0.20;0.20;;;16.30;99.90;17.10;101783.00;;;;5048674;28;20533;-68
2022/10/27 00:40:21;;;;;;;0.27;0.27;;;16.30;99.90;17.10;101845.00;;;;5033878;28;20626;-68
2022/10/27 00:42:52;;;;;;;0.80;0.40;;;16.30;99.90;17.00;101851.00;;;;5035166;28;20219;-68
2022/10/27 00:45:24;;;;;;;0.53;0.53;;;16.30;99.90;17.00;101864.00;;;;5033921;28;20191;-68
2022/10/27 00:48:05;;;;;;;0.53;0.53;;;16.30;99.90;17.30;101857.00;;;;5033466;28;20201;-68
2022/10/27 00:50:37;;;;;;;0.50;0.50;;;16.30;99.90;17.10;101852.00;;;;5034420;28;20179;-68
2022/10/27 00:53:06;;;;;;;0.37;0.37;;;16.40;99.90;17.30;101865.00;;;;5016540;28;20205;-69
2022/10/27 00:55:38;;;;;;;0.50;0.50;;;16.40;99.90;17.30;101864.00;;;;5026120;28;20190;-68
2022/10/27 00:58:17;;;;;;;0.60;0.60;;;16.40;99.90;17.30;101800.00;;;;5033984;28;20637;-69
2022/10/27 01:00:46;;;;;;;0.20;0.20;;;16.40;99.90;17.60;101807.00;;;;5033415;28;20198;-68
2022/10/27 01:03:15;;;;;;;0.20;0.20;;;16.50;99.90;17.00;101872.00;;;;5033104;28;20202;-69
2022/10/27 01:05:42;;;;;;;0.20;0.20;;;16.40;99.90;17.20;101823.00;;;;5016554;28;20183;-68
2022/10/27 01:08:17;;;;;;;0.20;0.20;;;16.30;99.90;17.10;101854.00;;;;5050082;28;20184;-69
2022/10/27 01:10:43;;;;;;;0.30;0.30;;;16.30;99.90;17.20;101865.00;;;;5033380;28;20222;-68
2022/10/27 01:13:15;;;;;;;0.50;0.50;;;16.40;99.90;17.00;101869.00;;;;5034232;28;20211;-68
2022/10/27 01:16:34;;;;;;;0.20;0.20;;;16.30;99.90;17.00;101823.00;;;;5032885;28;20528;-68
2022/10/27 01:19:47;;;;;;;2.20;2.07;;;16.20;99.90;17.20;101862.00;;;;5032756;28;20637;-68
2022/10/27 01:22:51;;;;;;;0.40;0.40;;;16.20;99.90;17.00;101860.00;;;;5024979;28;20653;-68
2022/10/27 01:25:23;;;;;;;0.23;0.23;;;16.20;99.90;17.20;101852.00;;;;5032412;28;20198;-68
2022/10/27 01:28:09;;;;;;;0.20;0.20;;;16.20;99.90;17.30;101857.00;;;;5032611;28;20546;-68
2022/10/27 01:31:10;;;;;;;0.53;0.50;;;16.20;99.90;17.30;101858.00;;;;5033753;28;20545;-68
2022/10/27 01:34:41;;;;;;;0.20;0.20;;;16.30;99.90;17.10;101856.00;;;;5049162;28;20197;-68
2022/10/27 01:37:32;;;;;;;0.20;0.20;;;16.20;99.90;17.00;101858.00;;;;5024597;28;20212;-68
2022/10/27 01:40:15;;;;;;;0.70;0.70;;;16.10;99.90;17.10;101860.00;;;;5032823;28;20668;-68
2022/10/27 01:42:49;;;;;;;0.20;0.20;;;16.10;99.90;16.90;101833.00;;;;5032623;28;20192;-68
2022/10/27 01:45:27;;;;;;;0.27;0.27;;;16.00;99.90;17.10;101852.00;;;;5032985;28;20176;-68
2022/10/27 01:47:57;;;;;;;0.20;0.20;;;16.00;99.90;16.90;101849.00;;;;5032302;28;20186;-68
2022/10/27 01:50:39;;;;;;;0.30;0.30;;;16.00;99.90;16.80;101855.00;;;;5049051;28;20177;-68
2022/10/27 01:53:13;;;;;;;0.50;0.33;;;15.90;99.90;16.90;101850.00;;;;5032935;28;20202;-68
2022/10/27 01:56:07;;;;;;;0.30;0.30;;;15.90;99.90;17.10;101844.00;;;;5049295;28;20170;-68
2022/10/27 01:59:09;;;;;;;0.20;0.20;;;16.00;99.90;17.20;101842.00;;;;5033727;28;20264;-68
2022/10/27 02:02:02;;;;;;;0.30;0.30;;;16.00;99.90;17.20;101796.00;;;;5031862;28;20270;-68
2022/10/27 02:04:59;;;;;;;0.30;0.30;;;16.00;99.90;17.10;101835.00;;;;5032375;28;20191;-68
2022/10/27 02:07:47;;;;;;;0.20;0.20;;;16.00;99.90;17.10;101837.00;;;;5031922;28;20188;-68
2022/10/27 02:10:26;;;;;;;0.30;0.30;;;15.90;99.90;17.00;101844.00;;;;5032577;28;20181;-68
2022/10/27 02:13:00;;;;;;;1.80;1.13;;;15.90;99.90;16.90;101839.00;;;;5032091;28;20665;-68
2022/10/27 02:15:36;;;;;;;0.30;0.30;;;15.90;99.90;16.90;101831.00;;;;5032167;28;20186;-68
2022/10/27 02:18:11;;;;;;;0.87;0.60;;;15.90;99.90;16.90;101829.00;;;;5032004;28;20178;-68
2022/10/27 02:20:46;;;;;;;0.30;0.30;;;15.80;99.90;17.10;101823.00;;;;5048564;28;20220;-68
2022/10/27 02:23:17;;;;;;;0.30;0.30;;;15.90;99.90;17.20;101819.00;;;;5032302;28;20185;-68
2022/10/27 02:26:09;;;;;;;0.87;0.57;;;15.90;99.90;17.30;101814.00;;;;5032185;28;20644;-68
2022/10/27 02:28:54;;;;;;;0.40;0.40;;;16.10;99.90;17.20;101819.00;;;;5033132;28;20232;-68
2022/10/27 02:31:26;;;;;;;0.20;0.20;;;16.10;99.90;17.40;101803.00;;;;5031662;28;20201;-68
2022/10/27 02:33:53;;;;;;;0.30;0.30;;;16.10;99.90;17.10;101810.00;;;;5031633;28;20281;-68
2022/10/27 02:36:19;;;;;;;0.43;0.37;;;16.00;99.90;17.00;101812.00;;;;5032412;28;20174;-69
2022/10/27 02:38:45;;;;;;;0.30;0.30;;;16.00;99.90;17.10;101809.00;;;;5032047;28;20237;-68
2022/10/27 02:41:16;;;;;;;0.30;0.30;;;16.00;99.90;17.10;101800.00;;;;5033085;28;20173;-68
2022/10/27 02:43:42;;;;;;;0.77;0.77;;;16.00;99.90;17.30;101800.00;;;;5032799;28;20264;-68
2022/10/27 02:46:14;;;;;;;0.83;0.83;;;16.00;99.90;17.30;101794.00;;;;5031880;28;20312;-69
2022/10/27 02:48:46;;;;;;;0.77;0.77;;;16.00;99.90;17.10;101803.00;;;;5031696;28;20182;-68
2022/10/27 02:51:12;;;;;;;0.30;0.30;;;16.00;99.90;17.10;101789.00;;;;5032125;28;20266;-69
2022/10/27 02:53:40;;;;;;;0.20;0.20;;;16.00;99.90;16.80;101791.00;;;;5031668;28;20277;-68
2022/10/27 02:56:09;;;;;;;1.40;0.70;;;15.80;99.90;16.80;101783.00;;;;5048956;28;20208;-68
2022/10/27 02:58:43;;;;;;;3.30;0.93;;;15.70;99.90;16.50;101790.00;;;;5032627;28;20247;-68
2022/10/27 03:01:09;;;;;;;0.47;0.47;;;15.60;99.90;17.00;101788.00;;;;5033206;28;20165;-68
2022/10/27 03:03:35;;;;;;;1.70;1.23;;;15.70;99.90;16.80;101769.00;;;;5048128;28;20245;-68
2022/10/27 03:06:07;;;;;;;0.60;0.40;;;15.70;99.90;16.90;101761.00;;;;5031550;28;20184;-68
2022/10/27 03:08:38;;;;;;;0.20;0.20;;;15.70;99.90;16.50;101770.00;;;;5031786;28;20265;-68
2022/10/27 03:11:09;;;;;;;0.30;0.30;;;15.60;99.90;17.20;101727.00;;;;5031834;28;20271;-68
2022/10/27 03:13:38;;;;;;;0.60;0.60;;;15.80;99.90;16.90;101726.00;;;;5032607;28;20208;-69
2022/10/27 03:16:04;;;;;;;0.43;0.43;;;15.80;99.90;16.70;101779.00;;;;5031928;28;20181;-68
2022/10/27 03:18:33;;;;;;;0.30;0.30;;;15.60;99.90;16.90;101773.00;;;;5033482;28;20188;-68
2022/10/27 03:21:04;;;;;;;0.30;0.30;;;15.70;99.90;17.00;101771.00;;;;5035251;28;20184;-68
2022/10/27 03:23:33;;;;;;;2.00;1.03;;;15.80;99.90;16.90;101770.00;;;;5035125;28;20548;-68
2022/10/27 03:26:08;;;;;;;1.67;1.57;;;15.80;99.90;16.70;101765.00;;;;5035272;28;20181;-69
2022/10/27 03:28:34;;;;;;;0.40;0.40;;;15.70;99.90;16.80;101773.00;;;;5036049;28;20574;-68
2022/10/27 03:31:04;;;;;;;0.70;0.70;;;15.60;99.90;17.00;101775.00;;;;5034854;28;20186;-68
2022/10/27 03:33:30;;;;;;;0.30;0.30;;;15.70;99.90;16.60;101769.00;;;;5035255;28;20206;-68
2022/10/27 03:36:00;;;;;;;0.30;0.30;;;15.60;99.90;16.60;101732.00;;;;5035062;28;20188;-68
2022/10/27 03:38:34;;;;;;;0.30;0.30;;;15.60;99.90;16.70;101776.00;;;;5036237;28;20177;-68
2022/10/27 03:41:03;;;;;;;0.20;0.20;;;15.60;99.90;16.60;101778.00;;;;5034878;28;20582;-68
2022/10/27 03:43:34;;;;;;;0.20;0.20;;;15.50;99.90;16.50;101780.00;;;;5034480;28;20200;-68
2022/10/27 03:46:09;;;;;;;0.20;0.20;;;15.50;99.90;16.50;101781.00;;;;5036000;28;20268;-69
2022/10/27 03:48:37;;;;;;;0.77;0.50;;;15.40;99.90;16.70;101780.00;;;;5035075;28;20228;-68
2022/10/27 03:51:24;;;;;;;0.40;0.40;;;15.40;99.90;16.50;101759.00;;;;5034805;28;20189;-68
2022/10/27 03:53:50;;;;;;;0.83;0.77;;;15.40;99.90;16.40;101783.00;;;;5035019;28;20169;-68
2022/10/27 03:56:15;;;;;;;0.50;0.50;;;15.40;99.90;16.20;101793.00;;;;5035841;28;20214;-68
2022/10/27 03:58:47;;;;;;;0.43;0.43;;;15.30;99.90;16.20;101790.00;;;;5034733;28;20212;-68
2022/10/27 04:01:13;;;;;;;0.40;0.40;;;15.20;99.90;16.30;101747.00;;;;5034300;28;20272;-68
2022/10/27 04:03:42;;;;;;;0.30;0.30;;;15.20;99.90;16.40;101795.00;;;;5035600;28;20188;-68
2022/10/27 04:06:11;;;;;;;0.20;0.20;;;15.20;99.90;16.30;101799.00;;;;5035672;28;20637;-68
2022/10/27 04:08:40;;;;;;;4.73;1.40;;;15.20;99.90;16.30;101800.00;;;;5034555;28;20182;-69
2022/10/27 04:11:05;;;;;;;0.30;0.30;;;15.20;99.90;16.00;101806.00;;;;5035433;28;20177;-69
2022/10/27 04:13:34;;;;;;;0.20;0.20;;;15.20;99.90;16.00;101804.00;;;;5051068;28;20537;-69
2022/10/27 04:16:03;;;;;;;0.30;0.30;;;15.10;99.90;16.10;101803.00;;;;5035801;28;20231;-69
2022/10/27 04:18:29;;;;;;;0.20;0.20;;;15.20;99.90;16.10;101802.00;;;;5035858;28;20176;-69
2022/10/27 04:21:02;;;;;;;0.20;0.20;;;15.10;99.90;16.30;101807.00;;;;5034167;28;20252;-68
2022/10/27 04:23:28;;;;;;;0.60;0.60;;;15.20;99.90;16.50;101749.00;;;;5035896;28;20250;-68
2022/10/27 04:25:58;;;;;;;0.40;0.40;;;15.30;99.90;16.60;101788.00;;;;5033946;28;20613;-68
2022/10/27 04:28:32;;;;;;;0.30;0.30;;;15.40;99.90;16.70;101752.00;;;;5035607;28;20182;-70
2022/10/27 04:31:01;;;;;;;0.20;0.20;;;15.60;99.90;16.40;101778.00;;;;5033719;28;20178;-69
2022/10/27 04:33:27;;;;;;;0.90;0.87;;;15.50;99.90;16.60;101761.00;;;;5035070;28;20215;-69
2022/10/27 04:35:58;;;;;;;0.30;0.30;;;15.50;99.90;16.80;101796.00;;;;5034976;28;20264;-68
2022/10/27 04:38:29;;;;;;;0.20;0.20;;;15.50;99.90;16.50;101770.00;;;;5035253;28;20172;-69
2022/10/27 04:41:07;;;;;;;0.20;0.20;;;15.50;99.90;16.40;101738.00;;;;5033753;28;20189;-68
2022/10/27 04:43:38;;;;;;;0.30;0.30;;;15.50;99.90;16.70;101768.00;;;;5033854;28;20181;-69
2022/10/27 04:46:07;;;;;;;0.37;0.37;;;15.60;99.90;16.70;101773.00;;;;5050168;28;20185;-68
2022/10/27 04:48:39;;;;;;;0.30;0.30;;;15.60;99.90;16.40;101773.00;;;;5033999;28;20312;-69
2022/10/27 04:51:07;;;;;;;0.20;0.20;;;15.50;99.90;16.50;101787.00;;;;5034685;28;20181;-68
2022/10/27 04:53:39;;;;;;;0.40;0.40;;;15.50;99.90;16.60;101782.00;;;;5033865;28;20192;-69
2022/10/27 04:56:07;;;;;;;0.43;0.43;;;15.50;99.90;16.60;101778.00;;;;5034314;28;20216;-69
2022/10/27 04:58:36;;;;;;;0.30;0.30;;;15.50;99.90;16.60;101785.00;;;;5034899;28;20175;-69
2022/10/27 05:01:07;;;;;;;0.20;0.20;;;15.50;99.90;16.70;101780.00;;;;5033299;28;20178;-69
2022/10/27 05:03:36;;;;;;;0.30;0.30;;;15.60;99.90;16.90;101776.00;;;;5034614;28;20175;-69
2022/10/27 05:06:03;;;;;;;0.60;0.60;;;15.60;99.90;16.80;101771.00;;;;5049857;28;20185;-69
2022/10/27 05:08:32;;;;;;;0.97;0.97;;;15.70;99.90;16.40;101769.00;;;;5049886;28;20185;-69
2022/10/27 05:11:01;;;;;;;0.30;0.30;;;15.50;99.90;16.40;101769.00;;;;5032773;28;20640;-68
2022/10/27 05:13:32;;;;;;;0.20;0.20;;;15.40;99.90;16.40;101754.00;;;;5034565;28;20298;-68
2022/10/27 05:16:02;;;;;;;12.43;4.90;;;15.40;99.90;16.40;101751.00;;;;5034634;28;20182;-69
2022/10/27 05:18:29;;;;;;;0.40;0.30;;;15.40;99.90;16.50;101757.00;;;;5049544;28;20211;-68
2022/10/27 05:21:00;;;;;;;0.60;0.60;;;15.40;99.90;16.60;101734.00;;;;5032857;28;20298;-69
2022/10/27 05:23:29;;;;;;;0.30;0.30;;;15.40;99.90;16.50;101760.00;;;;5032673;28;20182;-68
2022/10/27 05:25:58;;;;;;;0.47;0.47;;;15.40;99.90;16.50;101749.00;;;;5034184;28;20227;-68
2022/10/27 05:28:24;;;;;;;0.30;0.30;;;15.30;99.90;16.40;101750.00;;;;5049862;28;20181;-68
2022/10/27 05:30:59;;;;;;;0.30;0.30;;;15.30;99.90;16.20;101717.00;;;;5032690;28;20711;-68
2022/10/27 05:33:26;;;;;;;0.20;0.20;;;15.30;99.90;16.40;101752.00;;;;5032631;28;20243;-68
2022/10/27 05:35:53;;;;;;;0.40;0.40;;;15.30;99.90;16.80;101744.00;;;;5049323;28;20616;-68
2022/10/27 05:38:19;;;;;;;0.30;0.30;;;15.40;99.90;16.50;101737.00;;;;5032874;28;20165;-68
2022/10/27 05:40:57;;;;;;;0.30;0.30;;;15.40;99.90;16.50;101730.00;;;;5049194;28;20219;-68
2022/10/27 05:43:28;;;;;;;0.20;0.20;;;15.40;99.90;16.40;101704.00;;;;5032634;28;20181;-68
2022/10/27 05:45:57;;;;;;;0.30;0.30;;;15.30;99.90;16.50;101737.00;;;;5032757;28;20177;-69
2022/10/27 05:48:26;;;;;;;0.30;0.30;;;15.30;99.90;16.30;101739.00;;;;5032500;28;20180;-69
2022/10/27 05:50:53;;;;;;;0.60;0.60;;;15.20;99.90;16.10;101733.00;;;;5032540;28;20568;-69
2022/10/27 05:53:23;;;;;;;0.40;0.40;;;15.20;99.90;16.20;101741.00;;;;5032216;28;20262;-69
2022/10/27 05:55:52;;;;;;;0.47;0.47;;;15.10;99.90;16.30;101735.00;;;;5032616;28;20180;-69
2022/10/27 05:58:19;;;;;;;0.20;0.20;;;15.10;99.90;16.00;101739.00;;;;5048859;28;20619;-69
2022/10/27 06:00:45;;;;;;;0.30;0.30;;;15.10;99.90;16.10;101730.00;;;;5032510;28;20196;-69
2022/10/27 06:03:23;;;;;;;0.47;0.40;;;15.00;99.90;16.10;101724.00;;;;5031811;28;20193;-69
2022/10/27 06:05:52;;;;;;;0.30;0.30;;;15.00;99.90;16.00;101731.00;;;;5033593;28;20223;-69
2022/10/27 06:08:19;;;;;;;0.40;0.40;;;14.90;99.90;16.30;101728.00;;;;5032134;28;20581;-69
2022/10/27 06:10:46;;;;;;;0.40;0.40;;;15.10;99.90;16.20;101702.00;;;;5032414;28;20292;-69
2022/10/27 06:13:18;;;;;;;0.40;0.40;;;15.10;99.90;16.00;101689.00;;;;5033158;28;20218;-69
2022/10/27 06:15:44;;;;;;;0.30;0.30;;;15.00;99.90;16.20;101701.00;;;;5033410;28;20190;-69
2022/10/27 06:18:12;;;;;;;0.30;0.30;;;15.10;99.90;16.00;101694.00;;;;5032192;28;20189;-68
2022/10/27 06:20:39;;;;;;;0.83;0.83;;;15.00;99.90;16.10;101697.00;;;;5032627;28;20533;-68
2022/10/27 06:23:05;;;;;;;2.13;0.97;;;15.00;99.90;16.20;101696.00;;;;5031900;28;20256;-69
2022/10/27 06:25:31;;;;;;;0.30;0.30;;;15.00;99.90;16.20;101720.00;;;;5031944;28;20176;-68
2022/10/27 06:28:03;;;;;;;0.30;0.30;;;15.20;99.90;15.80;101708.00;;;;5026990;28;20271;-69
2022/10/27 06:30:29;;;;;;;0.40;0.40;;;15.00;99.90;16.20;101703.00;;;;5044912;28;20621;-69
2022/10/27 06:32:55;;;;;;;0.30;0.30;;;15.10;99.90;16.00;101685.00;;;;5045144;28;20218;-68
2022/10/27 06:35:25;;;;;;;0.40;0.40;;;15.10;99.90;16.40;101693.00;;;;5045036;28;20319;-68
2022/10/27 06:37:56;;;;;;;0.30;0.30;;;15.20;99.90;15.80;101701.00;;;;5045320;28;20534;-68
2022/10/27 06:40:25;;;;;;;0.27;0.27;;;15.10;99.90;15.80;101713.00;;;;5045276;28;20189;-68
2022/10/27 06:42:52;;;;;;;0.30;0.30;;;14.90;99.90;15.90;101707.00;;;;5045067;28;20188;-68
2022/10/27 06:45:35;;;;;;;1.70;1.23;;;15.00;99.90;15.90;101700.00;;;;5013428;28;20194;-68
2022/10/27 06:48:02;;;;;;;0.43;0.43;;;15.00;99.90;16.40;101699.00;;;;5044987;28;20189;-68
2022/10/27 06:50:32;;;;;;;0.20;0.20;;;15.20;99.90;16.30;101696.00;;;;5044786;28;20596;-68
2022/10/27 06:53:00;;;;;;;0.20;0.20;;;15.20;99.90;16.30;101703.00;;;;5013103;28;20202;-68
2022/10/27 06:55:26;;;;;;;0.47;0.43;;;15.30;99.90;16.30;101708.00;;;;5049229;28;20189;-68
2022/10/27 06:57:55;;;;;;;0.20;0.20;;;15.40;99.90;16.50;101704.00;;;;5017373;28;20200;-68
2022/10/27 07:00:27;;;;;;;0.27;0.27;;;15.40;99.90;16.20;101696.00;;;;5048344;28;20231;-68
2022/10/27 07:02:58;;;;;;;0.40;0.40;;;15.40;99.90;16.50;101706.00;;;;5016968;28;20197;-68
2022/10/27 07:05:25;;;;;;;0.30;0.30;;;15.40;99.90;16.60;101708.00;;;;5047827;28;20698;-69
2022/10/27 07:07:53;;;;;;;0.30;0.30;;;15.60;99.90;16.90;101713.00;;;;5017038;28;20190;-69
2022/10/27 07:10:20;;;;;;;0.30;0.30;;;15.70;99.90;16.80;101720.00;;;;5048785;28;20178;-69
2022/10/27 07:13:01;;;;;;;0.20;0.20;;;15.80;99.90;16.80;101716.00;;;;5017003;28;20237;-69
2022/10/27 07:15:44;;;;;;;0.20;0.20;;;15.80;99.90;16.70;101697.00;;;;5016004;28;20278;-69
2022/10/27 07:18:13;;;;;;;0.57;0.57;;;15.80;99.90;17.10;101710.00;;;;5048552;28;20706;-69
2022/10/27 07:20:45;;;;;;;0.30;0.30;;;16.00;99.90;17.20;101715.00;;;;5063297;28;20723;-69
2022/10/27 07:24:01;;;;;;;0.40;0.40;;;16.00;99.90;17.40;101693.00;;;;5021857;28;20276;-69
2022/10/27 07:26:30;;;;;;;0.53;0.53;;;16.20;99.90;17.30;101696.00;;;;5032884;28;20247;-69
2022/10/27 07:28:59;;;;;;;0.20;0.20;;;16.30;99.90;17.10;101699.00;;;;5035537;28;20199;-69
2022/10/27 07:31:25;;;;;;;0.40;0.40;;;16.20;99.90;17.40;101704.00;;;;5035210;28;20192;-69
2022/10/27 07:34:14;;;;;;;0.30;0.23;;;16.30;99.90;18.00;101701.00;;;;5034737;28;20237;-69
2022/10/27 07:36:43;;;;;;;16.40;7.90;;;16.60;99.90;17.70;101697.00;;;;5036147;28;20191;-69
2022/10/27 07:39:18;;;;;;;0.20;0.20;;;16.70;99.90;17.60;101695.00;;;;5050946;28;20263;-69
2022/10/27 07:42:10;;;;;;;0.87;0.37;;;16.70;99.90;18.30;101701.00;;;;5051725;28;20238;-69
2022/10/27 07:45:16;;;;;;;0.33;0.30;;;17.00;99.90;18.30;101699.00;;;;5042711;28;20198;-69
2022/10/27 07:47:51;;;;;;;0.20;0.20;;;17.20;99.90;18.40;101703.00;;;;5064488;28;20183;-69
2022/10/27 07:50:28;;;;;;;0.40;0.40;;;17.30;99.90;18.70;101689.00;;;;5034350;28;20548;-69
2022/10/27 07:53:05;;;;;;;1.00;0.63;;;17.50;99.90;18.80;101694.00;;;;5035189;28;20246;-69
2022/10/27 07:55:36;;;;;;;0.20;0.20;;;17.60;99.90;19.10;101683.00;;;;5034518;28;20637;-69
2022/10/27 07:58:12;;;;;;;0.13;0.13;;;17.90;99.90;18.90;101702.00;;;;5051548;28;20221;-69
2022/10/27 08:00:46;;;;;;;0.20;0.20;;;18.00;99.90;19.30;101709.00;;;;5034839;28;20174;-69
2022/10/27 08:03:25;;;;;;;0.20;0.20;;;18.10;99.90;18.70;101689.00;;;;5034149;28;20190;-69
2022/10/27 08:05:54;;;;;;;0.35;0.35;;;18.00;99.90;19.10;101698.00;;;;5050554;28;20236;-69
2022/10/27 08:08:21;;;;;;;0.82;0.40;;;17.90;99.90;19.00;101704.00;;;;5034526;28;20277;-72
2022/10/27 08:10:52;;;;;;;0.88;0.88;;;18.10;99.90;19.10;101661.00;;;;5034547;28;20185;-72
2022/10/27 08:13:23;;;;;;;0.67;0.43;;;18.10;99.90;19.10;101705.00;;;;5032071;28;20214;-72
2022/10/27 08:16:00;;;;;;;0.23;0.23;;;18.10;99.90;19.20;101709.00;;;;5027904;28;20221;-72
2022/10/27 08:18:29;;;;;;;0.20;0.20;;;18.00;99.90;19.10;101700.00;;;;5050746;28;20181;-72
2022/10/27 08:20:55;;;;;;;0.30;0.30;;;18.10;99.90;18.80;101701.00;;;;5034352;28;20171;-72
2022/10/27 08:23:27;;;;;;;0.73;0.73;;;18.00;99.90;19.30;101703.00;;;;5034382;28;20194;-72
2022/10/27 08:25:55;;;;;;;0.20;0.20;;;18.10;99.90;19.70;101721.00;;;;5034664;28;20162;-72
2022/10/27 08:28:23;;;;;;;1.05;0.95;;;18.30;99.90;19.60;101711.00;;;;5035252;28;20633;-72
2022/10/27 08:30:51;;;;;;;0.20;0.20;;;18.40;99.90;19.80;101720.00;;;;5050721;28;20171;-72
2022/10/27 08:33:21;;;;;;;0.20;0.20;;;18.50;99.90;19.50;101709.00;;;;5035010;28;20258;-72
2022/10/27 08:36:10;;;;;;;0.30;0.30;;;18.40;99.90;19.70;101702.00;;;;5033757;28;20171;-72
2022/10/27 08:38:37;;;;;;;0.20;0.20;;;18.40;99.90;19.80;101648.00;;;;5031434;28;20209;-72
2022/10/27 08:41:19;;;;;;;0.20;0.20;;;18.60;99.90;20.10;101699.00;;;;5033937;28;20253;-70
2022/10/27 08:44:04;;;;;;;0.40;0.40;;;18.60;99.90;20.20;101694.00;;;;5035050;28;20547;-74
2022/10/27 08:46:46;;;;;;;0.20;0.20;;;18.90;99.90;20.40;101698.00;;;;5033488;28;20226;-72
2022/10/27 08:49:32;;;;;;;0.20;0.20;;;19.00;99.90;20.70;101707.00;;;;5050275;28;20266;-72
2022/10/27 08:52:13;;;;;;;0.20;0.20;;;19.20;99.90;20.10;101703.00;;;;5050184;28;20203;-72
2022/10/27 08:54:52;;;;;;;0.20;0.20;;;19.10;99.90;20.00;101706.00;;;;5050417;28;20179;-73
2022/10/27 08:57:31;;;;;;;2.30;2.10;;;19.00;99.90;20.10;101713.00;;;;5050078;28;20190;-72
2022/10/27 09:00:11;;;;;;;0.20;0.20;;;19.10;99.90;20.60;101709.00;;;;5050526;28;20178;-72
2022/10/27 09:03:00;;;;;;;0.10;0.10;;;19.40;99.90;21.40;101733.00;;;;5049693;28;20198;-75
2022/10/27 09:05:55;;;;;;;0.28;0.28;;;19.70;99.90;21.60;101733.00;;;;5032205;28;20178;-75
2022/10/27 09:08:31;;;;;;;0.20;0.20;;;20.10;99.90;22.00;101735.00;;;;5048443;28;20186;-75
2022/10/27 09:11:24;;;;;;;0.10;0.10;;;20.60;99.90;22.50;101731.00;;;;5049829;28;20170;-75
2022/10/27 09:14:28;;;;;;;12.70;0.68;;;21.00;99.90;22.80;101735.00;;;;5034295;28;20179;-75
2022/10/27 09:17:00;;;;;;;0.60;0.60;;;21.30;99.90;22.50;101735.00;;;;5031549;28;20186;-75
2022/10/27 09:19:47;;;;;;;0.55;0.32;;;21.30;99.90;22.10;101728.00;;;;5049490;28;20186;-75
2022/10/27 09:22:19;;;;;;;0.30;0.30;;;21.00;99.90;22.10;101733.00;;;;5049741;28;20194;-75
2022/10/27 09:25:14;;;;;;;0.30;0.30;;;20.80;99.90;21.70;101726.00;;;;5050007;28;20174;-75
2022/10/27 09:27:43;;;;;;;0.98;0.75;;;20.60;99.90;21.20;101709.00;;;;5049381;28;20638;-75
2022/10/27 09:30:13;;;;;;;1.25;0.68;;;20.20;99.90;21.40;101697.00;;;;5049298;28;20567;-75
2022/10/27 09:32:48;;;;;;;0.43;0.43;;;20.10;99.90;21.60;101706.00;;;;5032802;28;20214;-75
2022/10/27 09:35:25;;;;;;;0.30;0.30;;;20.20;99.90;21.80;101702.00;;;;5049459;28;20178;-75
2022/10/27 09:37:52;;;;;;;0.73;0.68;;;20.30;99.90;21.50;101700.00;;;;5049357;28;20185;-75
2022/10/27 09:40:21;;;;;;;0.25;0.25;;;20.30;99.90;21.10;101693.00;;;;5049293;28;20172;-75
2022/10/27 09:42:55;;;;;;;0.57;0.57;;;20.00;99.90;20.80;101688.00;;;;5049761;28;20190;-75
2022/10/27 09:45:27;;;;;;;0.77;0.65;;;19.90;99.90;21.20;101673.00;;;;5049011;28;20190;-75
2022/10/27 09:48:04;;;;;;;0.20;0.20;;;19.90;99.90;21.10;101686.00;;;;5049190;28;20657;-75
2022/10/27 09:50:48;;;;;;;0.50;0.50;;;19.90;99.90;21.60;101683.00;;;;5049265;28;20179;-75
2022/10/27 09:53:51;;;;;;;0.30;0.30;;;20.10;99.90;21.30;101678.00;;;;5065695;28;20207;-75
2022/10/27 09:56:32;;;;;;;0.90;0.90;;;20.10;99.90;21.10;101661.00;;;;5022838;28;20220;-75
2022/10/27 09:59:02;;;;;;;0.68;0.68;;;20.00;99.90;21.30;101630.00;;;;5048763;28;20187;-75
2022/10/27 10:01:55;;;;;;;0.45;0.32;;;20.00;99.90;21.00;101679.00;;;;5049161;28;20183;-75
2022/10/27 10:04:44;;;;;;;0.50;0.50;;;20.00;99.90;21.30;101633.00;;;;5048801;28;20186;-75
2022/10/27 10:07:36;;;;;;;0.20;0.20;;;20.10;99.90;21.40;101672.00;;;;5048315;28;20194;-76
2022/10/27 10:10:23;;;;;;;0.32;0.32;;;20.10;99.90;21.40;101680.00;;;;5049099;28;20270;-75
2022/10/27 10:13:05;;;;;;;0.30;0.30;;;20.10;99.90;21.30;101699.00;;;;5033415;28;20194;-75
2022/10/27 10:15:45;;;;;;;0.20;0.20;;;20.20;99.90;21.40;101707.00;;;;5033081;28;20179;-74
2022/10/27 10:18:28;;;;;;;0.98;0.98;;;20.20;99.90;21.70;101709.00;;;;5048716;28;20243;-75
2022/10/27 10:33:40;;;;;;;0.60;0.60;;;19.90;99.90;21.30;101673.00;;;;5152249;27;20524;-75
2022/10/27 10:36:39;;;;;;;0.40;0.40;;;20.10;99.90;21.50;101686.00;;;;5096375;28;20187;-75
2022/10/27 10:39:31;;;;;;;0.55;0.55;;;20.30;99.90;21.40;101678.00;;;;5112801;28;20234;-75
2022/10/27 10:42:09;;;;;;;0.55;0.55;;;20.30;99.90;21.40;101658.00;;;;5096225;28;20236;-75
2022/10/27 10:44:39;;;;;;;0.20;0.20;;;20.40;99.90;21.20;101685.00;;;;5131323;28;20175;-75
2022/10/27 10:47:26;;;;;;;0.50;0.50;;;20.20;99.90;21.70;101694.00;;;;5096794;28;20567;-75
2022/10/27 10:50:01;;;;;;;0.20;0.20;;;20.40;99.90;21.70;101682.00;;;;5112780;28;20265;-75
2022/10/27 10:52:37;;;;;;;0.90;0.90;;;20.40;99.90;21.60;101682.00;;;;5095872;28;20207;-75
2022/10/27 10:55:32;;;;;;;0.30;0.30;;;20.40;99.90;21.80;101679.00;;;;5100013;27;20691;-71
2022/10/27 10:58:38;;;;;;;0.50;0.50;;;20.50;99.90;21.80;101660.00;;;;5110652;28;20183;-76
2022/10/27 11:01:11;;;;;;;0.50;0.50;;;20.50;99.90;21.70;101659.00;;;;5087171;28;20632;-74
2022/10/27 11:04:17;;;;;;;0.32;0.32;;;20.70;99.90;22.00;101662.00;;;;5092214;28;20262;-73
2022/10/27 11:07:55;;;;;;;1.85;0.47;;;20.60;99.90;22.00;101656.00;;;;5092737;28;20538;-69
2022/10/27 11:11:00;;;;;;;0.38;0.38;;;20.60;99.90;21.70;101657.00;;;;5057754;28;20192;-78
2022/10/27 11:14:06;;;;;;;0.30;0.30;;;20.60;99.90;22.30;101657.00;;;;5109098;28;20271;-74
2022/10/27 11:17:15;;;;;;;0.30;0.30;;;20.90;99.90;22.50;101661.00;;;;5074567;28;20187;-75
2022/10/27 11:20:19;;;;;;;0.20;0.20;;;21.00;99.90;22.40;101663.00;;;;5097590;28;20225;-72
2022/10/27 11:23:27;;;;;;;0.80;0.77;;;21.20;99.90;22.40;101645.00;;;;5112792;28;20173;-72
2022/10/27 11:26:21;;;;;;;0.20;0.20;;;21.20;99.90;22.70;101652.00;;;;5110497;28;20280;-72
2022/10/27 11:29:13;;;;;;;16.95;3.03;;;21.30;99.90;22.00;101652.00;;;;5112170;28;20187;-72
2022/10/27 11:32:32;;;;;;;0.20;0.20;;;21.20;99.90;22.10;101657.00;;;;5119587;28;20234;-72
2022/10/27 11:35:27;;;;;;;0.20;0.20;;;21.10;99.90;22.10;101651.00;;;;5047034;28;20194;-72
2022/10/27 11:38:57;;;;;;;1.30;0.50;;;21.00;99.90;22.00;101642.00;;;;5030697;28;20279;-72